createdAt,value
2019-04-20T00:02:04.387Z,100172.79
2019-04-20T00:04:35.644Z,100172.98
2019-04-20T00:07:08.092Z,100180.92
2019-04-20T00:09:41.676Z,100173.27
2019-04-20T00:12:18.906Z,100178.63
2019-04-20T00:14:46.279Z,100172.44
2019-04-20T00:17:17.789Z,100174.87
2019-04-20T00:19:54.202Z,100172.94
2019-04-20T00:22:34.411Z,100169.66
2019-04-20T00:25:23.509Z,100170.47
2019-04-20T00:28:25.092Z,100172.99
2019-04-20T00:30:54.420Z,100169.38
2019-04-20T00:33:27.123Z,100170.55
2019-04-20T00:35:46.338Z,100178.67
2019-04-20T00:38:21.128Z,100166.04
2019-04-20T00:40:58.474Z,100167.48
2019-04-20T00:43:30.103Z,100169.09
2019-04-20T00:46:04.614Z,100163.48
2019-04-20T00:48:40.439Z,100160.66
2019-04-20T00:51:24.066Z,100156.63
2019-04-20T00:53:39.674Z,100160.84
2019-04-20T00:56:07.865Z,100158.36
2019-04-20T00:58:52.169Z,100157.60
2019-04-20T01:01:37.490Z,100157.14
2019-04-20T01:04:10.774Z,100165.23
2019-04-20T01:06:42.386Z,100168.07
2019-04-20T01:09:07.451Z,100167.22
2019-04-20T01:11:42.211Z,100165.11
2019-04-20T01:14:12.803Z,100159.87
2019-04-20T01:16:52.846Z,100156.92
2019-04-20T01:19:21.311Z,100158.16
2019-04-20T01:21:58.143Z,100162.70
2019-04-20T01:24:30.865Z,100162.62
2019-04-20T01:26:58.850Z,100167.08
2019-04-20T01:29:34.548Z,100160.59
2019-04-20T01:32:12.521Z,100167.06
2019-04-20T01:34:41.628Z,100170.08
2019-04-20T01:37:18.160Z,100173.03
2019-04-20T01:39:41.451Z,100168.84
2019-04-20T01:42:06.491Z,100174.09
2019-04-20T01:44:43.381Z,100177.61
2019-04-20T01:47:13.367Z,100172.38
2019-04-20T01:49:47.780Z,100173.05
2019-04-20T01:52:23.351Z,100181.59
2019-04-20T01:55:31.688Z,100180.31
2019-04-20T01:58:09.137Z,100181.83
2019-04-20T02:00:36.544Z,100178.98
2019-04-20T02:03:22.851Z,100175.47
2019-04-20T02:06:00.172Z,100175.47
2019-04-20T02:08:31.425Z,100182.69
2019-04-20T02:11:05.349Z,100186.63
2019-04-20T02:13:43.407Z,100183.59
2019-04-20T02:16:17.563Z,100183.16
2019-04-20T02:18:58.698Z,100186.23
2019-04-20T02:21:29.984Z,100186.25
2019-04-20T02:23:53.337Z,100181.21
2019-04-20T02:26:18.094Z,100187.09
2019-04-20T02:34:39.616Z,100189.95
2019-04-20T02:37:13.846Z,100191.56
2019-04-20T02:39:45.329Z,100185.78
2019-04-20T02:44:48.119Z,100188.81
2019-04-20T02:47:25.741Z,100186.59
2019-04-20T02:49:52.429Z,100183.16
2019-04-20T02:52:33.500Z,100184.25
2019-04-20T02:55:06.346Z,100185.87
2019-04-20T02:57:47.220Z,100188.91
2019-04-20T03:02:18.186Z,100182.16
2019-04-20T03:04:43.435Z,100180.03
2019-04-20T03:07:20.642Z,100180.27
2019-04-20T03:09:58.409Z,100174.18
2019-04-20T03:12:33.471Z,100176.93
2019-04-20T03:15:00.814Z,100175.19
2019-04-20T03:17:38.711Z,100181.97
2019-04-20T03:20:04.720Z,100177.70
2019-04-20T03:23:11.172Z,100180.16
2019-04-20T03:25:42.732Z,100166.38
2019-04-20T03:28:16.479Z,100173.05
2019-04-20T03:36:12.219Z,100176.94
2019-04-20T03:38:38.649Z,100172.07
2019-04-20T03:41:03.997Z,100172.07
2019-04-20T03:43:24.501Z,100182.25
2019-04-20T03:46:02.555Z,100178.63
2019-04-20T03:48:40.908Z,100180.54
2019-04-20T03:51:24.613Z,100180.77
2019-04-20T03:54:02.779Z,100177.91
2019-04-20T03:56:46.361Z,100182.27
2019-04-20T03:59:51.111Z,100180.95
2019-04-20T04:02:57.575Z,100182.81
2019-04-20T04:05:32.392Z,100187.05
2019-04-20T04:08:04.324Z,100182.45
2019-04-20T04:10:41.262Z,100181.42
2019-04-20T04:13:22.918Z,100179.56
2019-04-20T04:16:02.890Z,100178.81
2019-04-20T04:18:37.260Z,100180.22
2019-04-20T04:21:09.860Z,100183.35
2019-04-20T04:23:54.245Z,100178.33
2019-04-20T04:26:27.477Z,100178.90
2019-04-20T04:29:08.540Z,100177.94
2019-04-20T04:31:34.600Z,100185.13
2019-04-20T04:34:10.873Z,100189.97
2019-04-20T04:36:48.288Z,100192.70
2019-04-20T04:39:18.677Z,100189.33
2019-04-20T04:41:58.383Z,100196.91
2019-04-20T04:44:14.813Z,100206.36
2019-04-20T04:46:43.512Z,100205.80
2019-04-20T04:49:16.484Z,100208.38
2019-04-20T04:51:47.065Z,100204.56
2019-04-20T04:54:22.014Z,100206.91
2019-04-20T04:56:42.363Z,100208.88
2019-04-20T04:59:13.063Z,100212.24
2019-04-20T05:01:48.868Z,100210.55
2019-04-20T05:04:33.275Z,100215.51
2019-04-20T05:06:58.148Z,100216.66
2019-04-20T05:09:19.233Z,100216.35
2019-04-20T05:12:02.086Z,100223.14
2019-04-20T05:14:27.067Z,100220.88
2019-04-20T05:17:07.730Z,100218.85
2019-04-20T05:19:47.808Z,100226.03
2019-04-20T05:22:27.569Z,100223.53
2019-04-20T05:25:07.866Z,100231.88
2019-04-20T05:27:47.930Z,100223.66
2019-04-20T05:30:01.268Z,100224.03
2019-04-20T05:32:41.293Z,100227.02
2019-04-20T05:35:27.101Z,100227.63
2019-04-20T05:40:35.218Z,100233.28
2019-04-20T05:43:24.616Z,100238.61
2019-04-20T05:45:45.388Z,100229.84
2019-04-20T05:48:23.566Z,100233.06
2019-04-20T05:51:12.166Z,100238.53
2019-04-20T05:53:48.470Z,100228.72
2019-04-20T05:56:08.432Z,100237.73
2019-04-20T05:58:46.416Z,100233.91
2019-04-20T06:01:22.822Z,100232.74
2019-04-20T06:03:50.065Z,100234.69
2019-04-20T06:06:23.466Z,100238.84
2019-04-20T06:09:00.729Z,100230.64
2019-04-20T06:11:29.475Z,100237.61
2019-04-20T06:14:08.171Z,100238.56
2019-04-20T06:17:17.014Z,100238.22
2019-04-20T06:19:54.666Z,100237.22
2019-04-20T06:22:35.206Z,100238.54
2019-04-20T06:27:52.430Z,100237.31
2019-04-20T06:30:18.901Z,100239.25
2019-04-20T06:33:38.596Z,100242.41
2019-04-20T06:36:15.082Z,100236.80
2019-04-20T06:38:52.461Z,100244.98
2019-04-20T06:41:17.529Z,100239.83
2019-04-20T06:43:42.230Z,100244.78
2019-04-20T06:46:09.859Z,100245.73
2019-04-20T06:48:47.065Z,100246.05
2019-04-20T06:51:18.823Z,100243.93
2019-04-20T06:53:48.710Z,100249.67
2019-04-20T06:56:33.632Z,100247.66
2019-04-20T06:59:08.180Z,100246.48
2019-04-20T07:01:42.259Z,100243.22
2019-04-20T07:04:21.183Z,100241.45
2019-04-20T07:09:24.604Z,100240.38
2019-04-20T07:11:35.075Z,100230.98
2019-04-20T07:13:54.450Z,100235.77
2019-04-20T07:17:20.628Z,100239.37
2019-04-20T07:20:04.135Z,100234.19
2019-04-20T07:22:46.005Z,100238.91
2019-04-20T07:25:14.389Z,100244.37
2019-04-20T07:27:48.957Z,100241.98
2019-04-20T07:30:19.369Z,100243.20
2019-04-20T07:35:26.262Z,100247.81
2019-04-20T07:38:25.657Z,100245.70
2019-04-20T07:40:28.988Z,100242.19
2019-04-20T07:43:01.569Z,100241.27
2019-04-20T07:48:11.318Z,100242.08
2019-04-20T07:50:32.251Z,100242.20
2019-04-20T07:53:07.478Z,100241.42
2019-04-20T07:55:52.361Z,100241.92
2019-04-20T07:58:05.243Z,100237.78
2019-04-20T08:01:18.078Z,100241.39
2019-04-20T08:03:58.754Z,100240.51
2019-04-20T08:06:23.254Z,100234.70
2019-04-20T08:09:02.778Z,100238.98
2019-04-20T08:11:44.820Z,100238.02
2019-04-20T08:14:19.248Z,100240.47
2019-04-20T08:19:14.751Z,100231.20
2019-04-20T08:21:52.451Z,100229.63
2019-04-20T08:24:21.547Z,100227.83
2019-04-20T08:26:42.064Z,100233.27
2019-04-20T08:29:33.163Z,100233.95
2019-04-20T08:32:19.768Z,100233.27
2019-04-20T08:34:47.489Z,100231.43
2019-04-20T08:37:18.573Z,100228.36
2019-04-20T08:40:07.220Z,100226.65
2019-04-20T08:42:30.447Z,100230.37
2019-04-20T08:45:30.714Z,100227.25
2019-04-20T08:47:56.438Z,100225.47
2019-04-20T08:50:22.406Z,100233.73
2019-04-20T08:53:12.778Z,100222.00
2019-04-20T08:55:28.154Z,100226.05
2019-04-20T08:57:46.877Z,100222.11
2019-04-20T09:00:25.847Z,100229.44
2019-04-20T09:02:58.163Z,100228.45
2019-04-20T09:05:40.021Z,100224.30
2019-04-20T09:08:14.412Z,100220.41
2019-04-20T09:10:49.173Z,100226.11
2019-04-20T09:13:19.793Z,100222.11
2019-04-20T09:15:44.752Z,100222.48
2019-04-20T09:18:49.298Z,100221.33
2019-04-20T09:21:24.324Z,100217.63
2019-04-20T09:24:14.932Z,100216.41
2019-04-20T09:26:54.574Z,100213.62
2019-04-20T09:29:11.127Z,100211.44
2019-04-20T09:31:47.095Z,100209.88
2019-04-20T09:34:42.603Z,100212.05
2019-04-20T09:37:45.824Z,100208.47
2019-04-20T09:40:33.597Z,100202.55
2019-04-20T09:42:51.458Z,100204.14
2019-04-20T09:45:37.317Z,100204.14
2019-04-20T09:48:02.120Z,100205.73
2019-04-20T09:50:56.101Z,100197.44
2019-04-20T09:53:22.273Z,100199.87
2019-04-20T09:56:02.151Z,100194.13
2019-04-20T09:58:24.629Z,100194.13
2019-04-20T10:01:01.749Z,100196.96
2019-04-20T10:03:22.387Z,100185.13
2019-04-20T10:05:53.778Z,100194.16
2019-04-20T10:08:25.974Z,100190.77
2019-04-20T10:10:56.197Z,100196.60
2019-04-20T10:13:27.286Z,100186.06
2019-04-20T10:15:57.744Z,100185.43
2019-04-20T10:18:35.134Z,100183.11
2019-04-20T10:21:07.601Z,100185.65
2019-04-20T10:23:40.709Z,100181.11
2019-04-20T10:26:10.652Z,100182.81
2019-04-20T10:28:41.347Z,100180.72
2019-04-20T10:31:12.745Z,100175.32
2019-04-20T10:33:43.803Z,100182.07
2019-04-20T10:36:26.117Z,100174.91
2019-04-20T10:38:58.678Z,100172.87
2019-04-20T10:41:40.905Z,100168.79
2019-04-20T10:44:02.882Z,100170.34
2019-04-20T10:46:42.889Z,100163.41
2019-04-20T10:49:13.295Z,100160.50
2019-04-20T10:51:43.941Z,100159.46
2019-04-20T10:54:14.248Z,100155.72
2019-04-20T10:56:43.872Z,100152.70
2019-04-20T10:59:13.834Z,100154.50
2019-04-20T11:01:43.491Z,100152.03
2019-04-20T11:04:12.960Z,100154.56
2019-04-20T11:06:42.762Z,100154.38
2019-04-20T11:09:12.011Z,100149.49
2019-04-20T11:11:44.169Z,100138.94
2019-04-20T11:14:22.845Z,100139.77
2019-04-20T11:16:46.587Z,100145.69
2019-04-20T11:19:16.012Z,100140.31
2019-04-20T11:21:46.430Z,100137.09
2019-04-20T11:24:16.387Z,100135.23
2019-04-20T11:26:46.817Z,100119.89
2019-04-20T11:29:18.081Z,100124.91
2019-04-20T11:31:51.101Z,100116.27
2019-04-20T11:34:28.543Z,100114.77
2019-04-20T11:36:55.090Z,100113.40
2019-04-20T11:39:25.080Z,100114.66
2019-04-20T11:41:55.971Z,100105.64
2019-04-20T11:44:27.859Z,100106.82
2019-04-20T11:46:56.707Z,100100.01
2019-04-20T11:49:26.243Z,100095.60
2019-04-20T11:51:55.393Z,100095.95
2019-04-20T11:54:24.604Z,100095.34
2019-04-20T11:56:53.777Z,100103.20
2019-04-20T11:59:23.197Z,100091.66
2019-04-20T12:02:25.339Z,100098.86
2019-04-20T12:05:10.141Z,100085.56
2019-04-20T12:07:28.919Z,100086.12
2019-04-20T12:10:08.098Z,100081.41
2019-04-20T12:12:40.015Z,100081.70
2019-04-20T12:15:01.918Z,100076.46
2019-04-20T12:17:33.500Z,100068.81
2019-04-20T12:20:03.987Z,100063.09
2019-04-20T12:22:34.533Z,100063.83
2019-04-20T12:25:03.761Z,100060.19
2019-04-20T12:27:34.503Z,100059.92
2019-04-20T12:30:05.779Z,100058.11
2019-04-20T12:32:43.939Z,100060.19
2019-04-20T12:35:08.585Z,100058.79
2019-04-20T12:37:38.949Z,100059.62
2019-04-20T12:40:09.070Z,100057.10
2019-04-20T12:42:39.106Z,100058.50
2019-04-20T12:45:09.473Z,100061.44
2019-04-20T12:47:39.653Z,100050.45
2019-04-20T12:50:11.962Z,100053.36
2019-04-20T12:52:41.647Z,100048.58
2019-04-20T12:55:12.423Z,100041.06
2019-04-20T12:57:42.783Z,100034.54
2019-04-20T13:00:13.256Z,100035.09
2019-04-20T13:02:43.308Z,100034.91
2019-04-20T13:05:15.394Z,100030.16
2019-04-20T13:07:49.280Z,100028.27
2019-04-20T13:10:17.830Z,100023.91
2019-04-20T13:13:14.430Z,100025.34
2019-04-20T13:16:04.494Z,100024.50
2019-04-20T13:18:39.197Z,100009.36
2019-04-20T13:21:09.567Z,100006.59
2019-04-20T13:23:51.202Z,100007.00
2019-04-20T13:26:22.543Z,100001.84
2019-04-20T13:28:55.114Z,99994.67
2019-04-20T13:31:24.388Z,99999.96
2019-04-20T13:33:54.941Z,99996.02
2019-04-20T13:36:26.155Z,99991.73
2019-04-20T13:38:56.417Z,99983.74
2019-04-20T13:41:25.720Z,99977.16
2019-04-20T13:43:57.819Z,99974.95
2019-04-20T13:46:27.248Z,99967.64
2019-04-20T13:48:57.287Z,99965.22
2019-04-20T13:51:26.670Z,99965.09
2019-04-20T13:53:57.293Z,99961.52
2019-04-20T13:56:27.963Z,99954.08
2019-04-20T13:59:07.864Z,99953.52
2019-04-20T14:01:51.237Z,99954.91
2019-04-20T14:04:32.780Z,99951.41
2019-04-20T14:07:03.375Z,99947.98
2019-04-20T14:09:35.406Z,99939.34
2019-04-20T14:12:17.338Z,99936.81
2019-04-20T14:14:43.389Z,99932.80
2019-04-20T14:17:13.061Z,99930.46
2019-04-20T14:19:43.196Z,99933.10
2019-04-20T14:22:13.223Z,99924.67
2019-04-20T14:24:43.164Z,99929.55
2019-04-20T14:27:13.301Z,99917.42
2019-04-20T14:29:46.396Z,99918.88
2019-04-20T14:32:16.797Z,99917.42
2019-04-20T14:34:47.044Z,99911.98
2019-04-20T14:37:17.527Z,99909.83
2019-04-20T14:39:48.047Z,99906.17
2019-04-20T14:42:30.660Z,99909.41
2019-04-20T14:44:50.128Z,99906.97
2019-04-20T14:47:19.507Z,99908.68
2019-04-20T14:49:50.524Z,99898.48
2019-04-20T14:52:25.902Z,99901.34
2019-04-20T14:54:55.424Z,99895.55
2019-04-20T14:57:25.560Z,99894.19
2019-04-20T14:59:59.137Z,99890.53
2019-04-20T15:02:30.413Z,99884.91
2019-04-20T15:05:01.151Z,99880.88
2019-04-20T15:07:31.332Z,99882.27
2019-04-20T15:10:00.811Z,99883.96
2019-04-20T15:12:43.289Z,99884.44
2019-04-20T15:15:02.995Z,99882.07
2019-04-20T15:17:47.823Z,99880.41
2019-04-20T15:20:51.800Z,99877.96
2019-04-20T15:23:23.773Z,99877.48
2019-04-20T15:25:54.839Z,99863.58
2019-04-20T15:28:26.285Z,99863.61
2019-04-20T15:30:56.215Z,99864.13
2019-04-20T15:33:25.733Z,99855.27
2019-04-20T15:35:55.795Z,99853.93
2019-04-20T15:38:25.177Z,99852.38
2019-04-20T15:40:55.382Z,99852.62
2019-04-20T15:43:30.303Z,99858.22
2019-04-20T15:45:59.538Z,99854.92
2019-04-20T15:48:29.981Z,99852.12
2019-04-20T15:51:01.698Z,99853.77
2019-04-20T15:53:33.522Z,99843.50
2019-04-20T15:56:16.471Z,99846.91
2019-04-20T15:58:46.211Z,99851.41
2019-04-20T16:01:18.442Z,99846.26
2019-04-20T16:04:03.511Z,99842.30
2019-04-20T16:06:34.907Z,99840.05
2019-04-20T16:09:06.223Z,99844.78
2019-04-20T16:11:37.016Z,99843.50
2019-04-20T16:14:07.227Z,99842.13
2019-04-20T16:16:37.368Z,99839.52
2019-04-20T16:19:19.534Z,99836.36
2019-04-20T16:21:39.573Z,99843.87
2019-04-20T16:24:13.116Z,99835.06
2019-04-20T16:27:25.459Z,99838.25
2019-04-20T16:29:55.788Z,99828.43
2019-04-20T16:32:26.810Z,99834.43
2019-04-20T16:34:56.269Z,99828.88
2019-04-20T16:37:26.474Z,99830.59
2019-04-20T16:39:56.643Z,99822.36
2019-04-20T16:42:26.670Z,99822.77
2019-04-20T16:44:57.005Z,99818.93
2019-04-20T16:47:26.501Z,99816.20
2019-04-20T16:49:57.108Z,99812.08
2019-04-20T16:52:26.358Z,99812.47
2019-04-20T16:54:55.680Z,99815.89
2019-04-20T16:57:25.624Z,99808.58
2019-04-20T16:59:57.761Z,99809.48
2019-04-20T17:02:28.393Z,99809.23
2019-04-20T17:04:59.022Z,99805.56
2019-04-20T17:07:33.195Z,99806.75
2019-04-20T17:10:04.219Z,99803.23
2019-04-20T17:12:33.756Z,99807.59
2019-04-20T17:15:05.609Z,99805.52
2019-04-20T17:17:35.832Z,99801.33
2019-04-20T17:20:05.780Z,99797.91
2019-04-20T17:22:38.371Z,99803.16
2019-04-20T17:25:21.790Z,99807.62
2019-04-20T17:28:07.197Z,99806.04
2019-04-20T17:30:59.218Z,99803.15
2019-04-20T17:33:55.328Z,99800.24
2019-04-20T17:36:21.463Z,99796.45
2019-04-20T17:38:53.937Z,99797.09
2019-04-20T17:41:40.175Z,99795.73
2019-04-20T17:44:10.025Z,99793.87
2019-04-20T17:46:38.441Z,99792.86
2019-04-20T17:49:09.387Z,99798.34
2019-04-20T17:51:49.087Z,99800.23
2019-04-20T17:54:19.890Z,99797.70
2019-04-20T17:57:13.107Z,99800.47
2019-04-20T17:59:53.214Z,99797.57
2019-04-20T18:02:57.470Z,99800.78
2019-04-20T18:05:44.135Z,99797.84
2019-04-20T18:08:15.493Z,99803.72
2019-04-20T18:10:44.397Z,99804.38
2019-04-20T18:13:07.056Z,99805.55
2019-04-20T18:15:45.506Z,99802.97
2019-04-20T18:18:38.988Z,99804.78
2019-04-20T18:21:14.796Z,99809.98
2019-04-20T18:23:46.591Z,99812.16
2019-04-20T18:26:41.990Z,99808.71
2019-04-20T18:29:20.135Z,99815.14
2019-04-20T18:31:37.597Z,99816.94
2019-04-20T18:34:20.294Z,99811.69
2019-04-20T18:36:47.775Z,99819.84
2019-04-20T18:39:39.901Z,99819.95
2019-04-20T18:42:09.973Z,99811.98
2019-04-20T18:44:55.602Z,99820.45
2019-04-20T18:47:23.854Z,99821.83
2019-04-20T18:49:46.593Z,99819.89
2019-04-20T18:52:06.128Z,99813.45
2019-04-20T18:54:40.654Z,99823.00
2019-04-20T18:57:14.415Z,99826.38
2019-04-20T18:59:47.050Z,99820.53
2019-04-20T19:02:18.520Z,99822.26
2019-04-20T19:04:43.900Z,99825.41
2019-04-20T19:07:14.155Z,99824.83
2019-04-20T19:09:44.812Z,99819.59
2019-04-20T19:12:16.118Z,99822.92
2019-04-20T19:15:12.120Z,99820.42
2019-04-20T19:18:11.542Z,99827.15
2019-04-20T19:20:34.738Z,99825.19
2019-04-20T19:23:16.768Z,99833.94
2019-04-20T19:25:46.003Z,99828.22
2019-04-20T19:28:22.735Z,99828.75
2019-04-20T19:31:02.447Z,99828.92
2019-04-20T19:33:31.097Z,99813.48
2019-04-20T19:35:56.139Z,99824.68
2019-04-20T19:38:29.490Z,99827.16
2019-04-20T19:41:00.127Z,99827.53
2019-04-20T19:43:31.646Z,99827.53
2019-04-20T19:46:34.906Z,99819.24
2019-04-20T19:48:39.671Z,99825.50
2019-04-20T19:51:22.398Z,99825.50
2019-04-20T19:53:51.009Z,99834.06
2019-04-20T19:56:10.751Z,99834.06
2019-04-20T19:58:39.701Z,99842.28
2019-04-20T20:01:03.576Z,99833.64
2019-04-20T20:03:33.366Z,99838.86
2019-04-20T20:06:03.913Z,99835.36
2019-04-20T20:08:36.470Z,99831.33
2019-04-20T20:11:09.564Z,99831.50
2019-04-20T20:13:46.512Z,99842.33
2019-04-20T20:16:21.527Z,99835.09
2019-04-20T20:18:55.350Z,99832.91
2019-04-20T20:21:23.708Z,99834.41
2019-04-20T20:23:45.949Z,99833.13
2019-04-20T20:26:23.270Z,99839.00
2019-04-20T20:28:52.865Z,99839.44
2019-04-20T20:31:28.036Z,99837.05
2019-04-20T20:34:03.127Z,99835.61
2019-04-20T20:36:28.850Z,99839.64
2019-04-20T20:39:04.508Z,99838.70
2019-04-20T20:41:32.966Z,99841.02
2019-04-20T20:44:08.084Z,99842.39
2019-04-20T20:47:00.759Z,99849.80
2019-04-20T20:49:38.603Z,99849.62
2019-04-20T20:52:16.217Z,99851.66
2019-04-20T20:54:33.669Z,99854.59
2019-04-20T20:57:02.906Z,99863.04
2019-04-20T20:59:34.729Z,99853.70
2019-04-20T21:02:06.797Z,99860.14
2019-04-20T21:04:27.842Z,99865.30
2019-04-20T21:06:58.087Z,99855.39
2019-04-20T21:09:29.310Z,99862.17
2019-04-20T21:12:04.806Z,99860.20
2019-04-20T21:14:32.913Z,99864.67
2019-04-20T21:17:09.596Z,99857.10
2019-04-20T21:19:48.059Z,99861.22
2019-04-20T21:22:08.508Z,99858.61
2019-04-20T21:24:39.894Z,99858.25
2019-04-20T21:27:15.308Z,99863.53
2019-04-20T21:29:51.462Z,99866.05
2019-04-20T21:32:23.466Z,99868.00
2019-04-20T21:34:58.549Z,99863.87
2019-04-20T21:37:27.204Z,99860.65
2019-04-20T21:40:00.505Z,99859.50
2019-04-20T21:42:30.322Z,99861.98
2019-04-20T21:45:07.043Z,99863.13
2019-04-20T21:47:38.262Z,99854.94
2019-04-20T21:50:27.942Z,99856.08
2019-04-20T21:52:44.274Z,99856.33
2019-04-20T21:55:12.112Z,99860.20
2019-04-20T21:57:50.187Z,99860.70
2019-04-20T22:00:37.570Z,99865.21
2019-04-20T22:03:07.765Z,99859.33
2019-04-20T22:05:40.221Z,99862.63
2019-04-20T22:08:14.059Z,99865.72
2019-04-20T22:10:44.927Z,99860.40
2019-04-20T22:13:19.462Z,99872.63
2019-04-20T22:16:01.093Z,99870.41
2019-04-20T22:18:25.381Z,99871.29
2019-04-20T22:21:11.177Z,99875.99
2019-04-20T22:23:47.620Z,99880.67
2019-04-20T22:26:11.880Z,99877.72
2019-04-20T22:28:40.296Z,99881.64
2019-04-20T22:31:15.971Z,99875.08
2019-04-20T22:33:47.280Z,99876.19
2019-04-20T22:36:18.210Z,99881.05
2019-04-20T22:39:07.548Z,99880.08
2019-04-20T22:41:45.799Z,99875.46
2019-04-20T22:44:18.448Z,99878.25
2019-04-20T22:46:46.187Z,99878.49
2019-04-20T22:49:33.092Z,99874.97
2019-04-20T22:51:58.208Z,99870.98
2019-04-20T22:54:37.918Z,99878.25
2019-04-20T22:57:00.799Z,99870.83
2019-04-20T22:59:39.894Z,99870.47
2019-04-20T23:02:04.191Z,99872.89
2019-04-20T23:04:37.112Z,99876.02
2019-04-20T23:07:10.596Z,99869.16
2019-04-20T23:09:50.337Z,99865.15
2019-04-20T23:12:15.687Z,99861.27
2019-04-20T23:14:44.715Z,99872.41
2019-04-20T23:17:26.181Z,99867.70
2019-04-20T23:19:53.935Z,99864.60
2019-04-20T23:22:21.082Z,99865.92
2019-04-20T23:24:53.307Z,99861.13
2019-04-20T23:27:31.114Z,99852.56
2019-04-20T23:29:58.551Z,99856.52
2019-04-20T23:32:30.283Z,99851.53
2019-04-20T23:35:05.832Z,99843.84
2019-04-20T23:37:36.911Z,99840.75
2019-04-20T23:40:11.315Z,99837.78
2019-04-20T23:42:49.544Z,99836.80
2019-04-20T23:45:54.792Z,99832.38
2019-04-20T23:48:33.697Z,99828.81
2019-04-20T23:51:26.107Z,99827.54
2019-04-20T23:53:45.453Z,99833.80
2019-04-20T23:56:03.864Z,99825.09
2019-04-20T23:58:42.908Z,99824.97
